Aviation Digital Data Service (ADDS)

Output produced by TAFs form (1837 UTC 01 September 2014)
found at http://aviationweather.gov/adds/tafs/
 
KSAF 011737Z 0118/0218 25011KT P6SM FEW100 
     TEMPO 0120/0124 25011G21KT 
     FM020200 01007KT P6SM SKC 
     FM021700 20007KT P6SM SKC